createdAt,value
2023-01-21T00:04:00.526Z,4087.3
2023-01-21T00:09:35.949Z,4085.7
2023-01-21T00:15:32.140Z,4086.3
2023-01-21T00:21:28.166Z,4081.5
2023-01-21T00:27:03.353Z,4082.6
2023-01-21T00:32:47.011Z,4082.1
2023-01-21T00:38:25.186Z,4082
2023-01-21T00:44:09.406Z,4081
2023-01-21T00:50:06.487Z,4076.3
2023-01-21T00:56:37.310Z,4075.6
2023-01-21T01:02:29.427Z,4080
2023-01-21T01:08:15.610Z,4074.1
2023-01-21T01:13:57.245Z,4074.6
2023-01-21T01:19:42.831Z,4079.5
2023-01-21T01:25:26.199Z,4077.5
2023-01-21T01:31:12.861Z,4075.6
2023-01-21T01:36:49.502Z,4075.3
2023-01-21T01:42:44.940Z,4075.8
2023-01-21T01:49:28.200Z,4076.3
2023-01-21T01:55:03.849Z,4071.6
2023-01-21T02:02:32.849Z,4072.4
2023-01-21T02:08:15.334Z,4070.3
2023-01-21T02:13:55.775Z,4070.3
2023-01-21T02:19:50.632Z,4071.8
2023-01-21T02:25:26.401Z,4070.1
2023-01-21T02:31:03.810Z,4072.1
2023-01-21T02:36:39.023Z,4074.3
2023-01-21T02:42:17.293Z,4069.7
2023-01-21T02:48:14.715Z,4072.3
2023-01-21T02:55:13.766Z,4068.2
2023-01-21T03:00:58.753Z,4067.6
2023-01-21T03:06:34.111Z,4066.2
2023-01-21T03:12:17.246Z,4064.2
2023-01-21T03:17:53.361Z,4065.9
2023-01-21T03:23:31.646Z,4065.2
2023-01-21T03:29:09.693Z,4065.9
2023-01-21T03:34:48.357Z,4061.2
2023-01-21T03:40:25.027Z,4066.9
2023-01-21T03:46:00.648Z,4063.4
2023-01-21T03:51:44.875Z,4061.4
2023-01-21T03:58:09.290Z,4062.4
2023-01-21T04:03:57.616Z,4062.2
2023-01-21T04:09:53.374Z,4060.4
2023-01-21T04:15:29.066Z,4062.5
2023-01-21T04:21:28.261Z,4059.9
2023-01-21T04:28:11.954Z,4063.6
2023-01-21T04:34:11.651Z,4056.3
2023-01-21T04:40:10.819Z,4057.2
2023-01-21T04:45:46.440Z,4057.9
2023-01-21T04:51:23.912Z,4059.4
2023-01-21T04:57:11.109Z,4057
2023-01-21T05:02:53.150Z,4057.2
2023-01-21T05:08:34.484Z,4055.8
2023-01-21T05:14:30.144Z,4053.7
2023-01-21T05:20:06.843Z,4055.7
2023-01-21T05:25:44.940Z,4056
2023-01-21T05:31:22.378Z,4055.3
2023-01-21T05:37:19.816Z,4055.3
2023-01-21T05:43:27.765Z,4053.7
2023-01-21T05:49:10.153Z,4054.5
2023-01-21T05:55:44.313Z,4051.8
2023-01-21T06:01:42.471Z,4051.7
2023-01-21T06:07:22.795Z,4053.3
2023-01-21T06:12:59.834Z,4054
2023-01-21T06:18:42.069Z,4051.3
2023-01-21T06:24:20.178Z,4050.7
2023-01-21T06:30:16.868Z,4051.2
2023-01-21T06:35:52.833Z,4050.7
2023-01-21T06:41:27.814Z,4048
2023-01-21T06:47:04.291Z,4045.3
2023-01-21T06:53:01.298Z,4045.6
2023-01-21T06:58:36.542Z,4046.1
2023-01-21T07:04:22.492Z,4046.5
2023-01-21T07:10:15.617Z,4045.1
2023-01-21T07:16:31.740Z,4044
2023-01-21T07:22:37.448Z,4044.1
2023-01-21T07:28:22.186Z,4045.1
2023-01-21T07:33:57.026Z,4037.8
2023-01-21T07:39:32.033Z,4040.9
2023-01-21T07:45:07.592Z,4037.9
2023-01-21T07:50:42.847Z,4029.7
2023-01-21T07:56:17.962Z,4049.8
2023-01-21T08:01:55.379Z,4055.7
2023-01-21T08:07:31.567Z,4067.1
2023-01-21T08:13:06.582Z,4060.5
2023-01-21T08:18:45.093Z,4057
2023-01-21T08:24:20.042Z,4071.3
2023-01-21T08:29:54.950Z,4077.8
2023-01-21T08:35:30.456Z,4073.1
2023-01-21T08:41:08.928Z,4060.7
2023-01-21T08:46:44.309Z,4048.1
2023-01-21T08:52:19.705Z,4050.8
2023-01-21T08:57:55.216Z,4057.9
2023-01-21T09:03:35.164Z,4063
2023-01-21T09:09:11.371Z,4067.4
2023-01-21T09:14:52.863Z,4092.5
2023-01-21T09:20:28.403Z,4119.7
2023-01-21T09:26:04.050Z,4158.2
2023-01-21T09:31:39.970Z,4118.5
2023-01-21T09:37:15.200Z,4141.3
2023-01-21T09:42:51.238Z,4150.8
2023-01-21T09:48:26.727Z,4144.8
2023-01-21T09:54:02.277Z,4161.4
2023-01-21T09:59:37.959Z,4163.2
2023-01-21T10:05:13.071Z,4180.1
2023-01-21T10:10:49.067Z,4177.1
2023-01-21T10:16:28.389Z,4159.9
2023-01-21T10:22:03.986Z,4159.9
2023-01-21T10:28:11.825Z,4164.9
2023-01-21T10:33:47.512Z,4166.6
2023-01-21T10:39:23.544Z,4192.5
2023-01-21T10:44:59.045Z,4184.7
2023-01-21T10:50:56.092Z,4164.6
2023-01-21T10:56:44.563Z,4158.2
2023-01-21T11:02:41.611Z,4185.5
2023-01-21T11:08:22.379Z,4188.2
2023-01-21T11:14:10.676Z,4168.1
2023-01-21T11:19:50.337Z,4162.4
2023-01-21T11:25:25.954Z,4161.2
2023-01-21T11:31:03.859Z,4172.4
2023-01-21T11:36:48.068Z,4166.1
2023-01-21T11:42:23.759Z,4172.8
2023-01-21T11:48:20.838Z,4193.4
2023-01-21T11:54:03.857Z,4201.2
2023-01-21T11:59:40.050Z,4191.9
2023-01-21T12:05:56.623Z,4191.2
2023-01-21T12:11:33.085Z,4195.9
2023-01-21T12:17:09.763Z,4197.4
2023-01-21T12:25:25.715Z,4178
2023-01-21T12:31:56.109Z,4192.9
2023-01-21T12:37:34.595Z,4197.9
2023-01-21T12:43:09.840Z,4181.6
2023-01-21T12:48:45.127Z,4194.7
2023-01-21T12:54:20.814Z,4198.9
2023-01-21T13:00:04.980Z,4175.1
2023-01-21T13:05:51.738Z,4201.4
2023-01-21T13:11:27.286Z,4191
2023-01-21T13:17:08.344Z,4208.1
2023-01-21T13:22:45.007Z,4201.9
2023-01-21T13:28:21.681Z,4187.7
2023-01-21T13:33:57.207Z,4163.7
2023-01-21T13:39:34.675Z,4158.2
2023-01-21T13:46:11.276Z,4181.8
2023-01-21T13:51:58.869Z,4181.6
2023-01-21T13:57:43.506Z,4183
2023-01-21T14:03:21.511Z,4197.9
2023-01-21T14:08:56.578Z,4186.7
2023-01-21T14:14:43.632Z,4171.8
2023-01-21T14:20:24.002Z,4171.3
2023-01-21T14:26:02.109Z,4186.2
2023-01-21T14:31:38.213Z,4175.8
2023-01-21T14:37:13.226Z,4201.6
2023-01-21T14:42:48.205Z,4200.2
2023-01-21T14:48:29.083Z,4185.2
2023-01-21T14:54:14.142Z,4190.3
2023-01-21T15:00:15.629Z,4201.9
2023-01-21T15:05:54.558Z,4176.6
2023-01-21T15:11:34.109Z,4172.4
2023-01-21T15:17:12.305Z,4162.4
2023-01-21T15:22:50.359Z,4168.1
2023-01-21T15:28:26.640Z,4156.8
2023-01-21T15:34:08.314Z,4151.2
2023-01-21T15:39:46.221Z,4158.7
2023-01-21T15:45:22.083Z,4162.4
2023-01-21T15:50:58.034Z,4155.3
2023-01-21T15:56:48.789Z,4159.7
2023-01-21T16:02:25.659Z,4170.1
2023-01-21T16:08:01.627Z,4151.2
2023-01-21T16:13:44.668Z,4163.2
2023-01-21T16:19:22.707Z,4149.5
2023-01-21T16:24:58.108Z,4148
2023-01-21T16:31:06.245Z,4143.3
2023-01-21T16:36:57.555Z,4144.1
2023-01-21T16:42:59.877Z,4141.8
2023-01-21T16:48:39.806Z,4143.8
2023-01-21T16:54:30.681Z,4132.1
2023-01-21T17:00:10.755Z,4132.7
2023-01-21T17:05:46.025Z,4136.7
2023-01-21T17:11:25.456Z,4134.9
2023-01-21T17:17:00.687Z,4134.6
2023-01-21T17:22:36.366Z,4130.4
2023-01-21T17:28:23.430Z,4129.2
2023-01-21T17:33:59.164Z,4130
2023-01-21T17:39:35.004Z,4130.4
2023-01-21T17:45:21.289Z,4130.9
2023-01-21T17:51:00.339Z,4131.4
2023-01-21T17:57:13.701Z,4131.1
2023-01-21T18:02:50.192Z,4128.9
2023-01-21T18:08:25.522Z,4130.7
2023-01-21T18:14:00.721Z,4129.4
2023-01-21T18:19:37.420Z,4133.4
2023-01-21T18:25:16.189Z,4128.7
2023-01-21T18:30:53.683Z,4130.2
2023-01-21T18:36:42.580Z,4132.6
2023-01-21T18:42:35.508Z,4129.2
2023-01-21T18:48:32.430Z,4124.4
2023-01-21T18:54:06.494Z,4132.1
2023-01-21T18:59:43.108Z,4130.9
2023-01-21T19:05:27.789Z,4128.7
2023-01-21T19:11:11.780Z,4126.7
2023-01-21T19:16:52.087Z,4126.4
2023-01-21T19:22:54.408Z,4127.2
2023-01-21T19:28:32.102Z,4129.7
2023-01-21T19:34:10.207Z,4125.2
2023-01-21T19:39:46.367Z,4125.2
2023-01-21T19:45:24.336Z,4123.8
2023-01-21T19:51:00.418Z,4125.5
2023-01-21T19:56:44.783Z,4122.2
2023-01-21T20:02:26.405Z,4122.3
2023-01-21T20:08:22.382Z,4122.3
2023-01-21T20:14:02.250Z,4119.8
2023-01-21T20:19:40.784Z,4121.2
2023-01-21T20:25:44.226Z,4120.3
2023-01-21T20:31:29.515Z,4122.7
2023-01-21T20:37:05.037Z,4121.2
2023-01-21T20:42:42.855Z,4124.2
2023-01-21T20:48:18.439Z,4118.8
2023-01-21T20:53:54.448Z,4119.5
2023-01-21T20:59:36.329Z,4117
2023-01-21T21:05:56.333Z,4116.8
2023-01-21T21:11:31.854Z,4119.8
2023-01-21T21:17:37.938Z,4119
2023-01-21T21:23:14.698Z,4117.5
2023-01-21T21:29:16.592Z,4120.3
2023-01-21T21:34:51.768Z,4116.5
2023-01-21T21:40:30.847Z,4115.8
2023-01-21T21:46:13.085Z,4113.6
2023-01-21T21:51:54.176Z,4114.1
2023-01-21T21:57:29.095Z,4112.5
2023-01-21T22:03:04.623Z,4112.3
2023-01-21T22:09:00.228Z,4106.8
2023-01-21T22:14:37.916Z,4109.9
2023-01-21T22:20:14.530Z,4111.3
2023-01-21T22:25:53.352Z,4108.1
2023-01-21T22:31:30.195Z,4108.3
2023-01-21T22:37:15.216Z,4107.8
2023-01-21T22:42:53.900Z,4108.8
2023-01-21T22:48:51.282Z,4102.9
2023-01-21T22:54:35.679Z,4104.9
2023-01-21T23:00:47.719Z,4105.4
2023-01-21T23:06:39.232Z,4104.6
2023-01-21T23:12:28.227Z,4107.1
2023-01-21T23:18:03.476Z,4102.2
2023-01-21T23:23:39.458Z,4102.7
2023-01-21T23:29:14.626Z,4102.7
2023-01-21T23:34:49.866Z,4100.6
2023-01-21T23:40:35.012Z,4101.6
2023-01-21T23:46:33.637Z,4096.5
2023-01-21T23:52:15.289Z,4098.6
2023-01-21T23:58:20.764Z,4099.4
